Time;durP1;ratioP1;P1;durP2;ratioP2;P2;SDS_P1;SDS_P2;PMS_P1;PMS_P2;Temp;Humidity;BMP_temperature;BMP_pressure;BME280_temperature;BME280_humidity;BME280_pressure;Samples;Min_cycle;Max_cycle;Signal;HPM_P1;HPM_P2
2021/12/09 05:01:02;;;;;;;38.37;20.73;;;3.90;99.90;;;;;;5745379;23;20583;-79
2021/12/09 05:03:28;;;;;;;45.80;20.80;;;3.80;99.90;;;;;;4955571;29;20465;-79
2021/12/09 05:05:59;;;;;;;37.50;17.77;;;3.90;99.90;;;;;;4956459;29;20464;-79
2021/12/09 05:08:28;;;;;;;37.70;18.20;;;3.80;99.90;;;;;;4955685;29;20886;-79
2021/12/09 05:11:03;;;;;;;38.97;19.37;;;3.80;99.90;;;;;;4955886;28;20473;-79
2021/12/09 05:13:33;;;;;;;37.20;17.83;;;3.80;99.90;;;;;;4956380;29;20463;-79
2021/12/09 05:16:02;;;;;;;38.10;17.33;;;3.80;99.90;;;;;;4955246;29;20941;-80
2021/12/09 05:18:31;;;;;;;40.43;17.90;;;3.70;99.90;;;;;;4955383;28;20539;-80
2021/12/09 05:20:59;;;;;;;39.00;17.70;;;3.70;99.90;;;;;;4955170;28;20512;-80
2021/12/09 05:23:26;;;;;;;38.13;16.70;;;3.70;99.90;;;;;;4955221;29;20891;-80
2021/12/09 05:25:53;;;;;;;34.93;17.67;;;3.70;99.90;;;;;;4955204;29;20534;-80
2021/12/09 05:28:29;;;;;;;40.83;18.37;;;3.70;99.90;;;;;;4955082;29;20456;-81
2021/12/09 05:33:42;;;;;;;32.77;15.97;;;3.70;99.90;;;;;;4955428;29;20416;-81
2021/12/09 05:36:09;;;;;;;26.47;14.07;;;3.60;99.90;;;;;;4955424;29;21012;-81
2021/12/09 05:38:37;;;;;;;27.53;15.23;;;3.60;99.90;;;;;;4954867;29;20621;-81
2021/12/09 05:41:04;;;;;;;37.30;16.70;;;3.60;99.90;;;;;;4955199;28;20500;-81
2021/12/09 05:43:31;;;;;;;31.20;14.70;;;3.60;99.90;;;;;;4955268;29;20537;-81
2021/12/09 05:45:58;;;;;;;31.73;14.00;;;3.60;99.90;;;;;;4954691;29;20902;-81
2021/12/09 05:48:25;;;;;;;28.70;13.73;;;3.60;99.90;;;;;;4954407;29;20480;-80
2021/12/09 05:50:53;;;;;;;24.60;13.60;;;3.70;99.90;;;;;;4954625;28;20535;-72
2021/12/09 05:53:20;;;;;;;26.63;13.50;;;3.70;99.90;;;;;;4953234;29;20459;-72
2021/12/09 05:55:48;;;;;;;28.97;13.77;;;3.70;99.90;;;;;;4953264;29;20499;-73
2021/12/09 05:58:17;;;;;;;20.77;12.63;;;3.70;99.90;;;;;;4953380;29;20963;-73
2021/12/09 06:00:44;;;;;;;36.57;14.67;;;3.70;99.90;;;;;;4953217;28;20486;-73
2021/12/09 06:03:11;;;;;;;28.63;13.30;;;3.70;99.90;;;;;;4952566;29;20449;-73
2021/12/09 06:05:39;;;;;;;29.70;12.53;;;3.80;99.90;;;;;;4953238;29;20902;-73
2021/12/09 06:08:07;;;;;;;22.10;12.37;;;3.70;99.90;;;;;;4952523;29;20488;-73
2021/12/09 06:10:36;;;;;;;24.00;12.70;;;3.70;99.90;;;;;;4952539;28;20500;-74
2021/12/09 06:13:03;;;;;;;25.83;13.10;;;3.70;99.90;;;;;;4953417;29;20452;-73
2021/12/09 06:15:30;;;;;;;26.33;14.13;;;3.70;99.90;;;;;;4953453;29;20528;-74
2021/12/09 06:17:57;;;;;;;30.73;12.70;;;3.60;99.90;;;;;;4953449;29;20448;-73
2021/12/09 06:20:25;;;;;;;30.90;14.70;;;3.60;99.90;;;;;;4952887;28;20548;-75
2021/12/09 06:22:52;;;;;;;27.90;15.23;;;3.60;99.90;;;;;;4952983;29;21244;-73
2021/12/09 06:25:21;;;;;;;26.53;14.07;;;3.50;99.90;;;;;;4953471;29;20536;-73
2021/12/09 06:27:54;;;;;;;32.07;14.57;;;3.50;99.90;;;;;;4952943;29;20456;-73
2021/12/09 06:30:22;;;;;;;28.93;13.90;;;3.50;99.90;;;;;;4955206;28;20492;-73
2021/12/09 06:32:49;;;;;;;31.90;14.70;;;3.40;99.90;;;;;;4956707;29;20452;-73
2021/12/09 06:35:17;;;;;;;24.83;14.13;;;3.40;99.90;;;;;;4956408;29;20567;-74
2021/12/09 06:37:45;;;;;;;28.20;14.00;;;3.40;99.90;;;;;;4956815;29;20461;-73
2021/12/09 06:40:14;;;;;;;26.17;13.50;;;3.50;99.90;;;;;;4956167;28;21000;-73
2021/12/09 06:42:43;;;;;;;27.27;14.93;;;3.50;99.90;;;;;;4956676;29;20476;-74
2021/12/09 06:45:11;;;;;;;25.13;13.10;;;3.50;99.90;;;;;;4956451;29;20563;-73
2021/12/09 06:47:38;;;;;;;27.83;14.53;;;3.50;99.90;;;;;;4955785;29;20532;-73
2021/12/09 06:50:09;;;;;;;27.30;13.53;;;3.40;99.90;;;;;;4956014;29;20543;-74
2021/12/09 06:52:36;;;;;;;25.03;13.40;;;3.50;99.90;;;;;;4956167;28;20563;-74
2021/12/09 06:55:06;;;;;;;35.20;14.93;;;3.50;99.90;;;;;;4955902;29;21024;-73
2021/12/09 06:57:33;;;;;;;24.47;13.73;;;3.50;99.90;;;;;;4956050;29;21012;-73
2021/12/09 07:00:01;;;;;;;29.83;12.73;;;3.50;99.90;;;;;;4955704;29;20543;-73
2021/12/09 07:02:28;;;;;;;21.70;13.00;;;3.50;99.90;;;;;;4956071;28;20571;-74
2021/12/09 07:04:55;;;;;;;32.20;12.93;;;3.50;99.90;;;;;;4956198;29;20524;-73
2021/12/09 07:07:21;;;;;;;23.77;12.30;;;3.50;99.90;;;;;;4956104;29;20449;-73
2021/12/09 07:09:48;;;;;;;27.03;11.97;;;3.50;99.90;;;;;;4955707;29;20536;-74
2021/12/09 07:12:15;;;;;;;32.77;13.17;;;3.60;99.90;;;;;;4955963;28;20555;-73
2021/12/09 07:14:43;;;;;;;20.90;12.23;;;3.60;99.90;;;;;;4955731;29;20548;-74
2021/12/09 07:17:11;;;;;;;24.27;11.83;;;3.60;99.90;;;;;;4956014;28;20772;-73
2021/12/09 07:19:39;;;;;;;17.57;11.00;;;3.60;99.90;;;;;;4955569;28;20896;-73
2021/12/09 07:22:06;;;;;;;24.73;11.47;;;3.70;99.90;;;;;;4955735;28;20916;-73
2021/12/09 07:24:33;;;;;;;19.87;11.53;;;3.60;99.90;;;;;;4955599;28;20459;-73
2021/12/09 07:27:00;;;;;;;20.47;10.83;;;3.60;99.90;;;;;;4955654;29;20487;-73
2021/12/09 07:29:28;;;;;;;18.50;11.03;;;3.70;99.90;;;;;;4955196;29;20459;-74
2021/12/09 07:31:55;;;;;;;30.87;12.57;;;3.70;99.90;;;;;;4955741;28;20508;-73
2021/12/09 07:34:23;;;;;;;21.60;12.03;;;3.70;99.90;;;;;;4955626;29;20548;-74
2021/12/09 07:36:50;;;;;;;21.53;11.10;;;3.70;99.90;;;;;;4955593;29;20587;-73
2021/12/09 07:39:17;;;;;;;25.47;12.30;;;3.70;99.90;;;;;;4955169;29;20913;-73
2021/12/09 07:41:44;;;;;;;19.37;11.33;;;3.70;99.90;;;;;;4954201;28;20555;-73
2021/12/09 07:44:13;;;;;;;23.90;11.60;;;3.70;99.90;;;;;;4955631;29;20564;-73
2021/12/09 07:46:42;;;;;;;23.30;11.30;;;3.70;99.90;;;;;;4955368;29;20456;-73
2021/12/09 07:49:09;;;;;;;26.00;12.20;;;3.80;99.90;;;;;;4955081;29;20468;-74
2021/12/09 07:51:38;;;;;;;22.83;11.70;;;3.80;99.90;;;;;;4955064;28;20563;-73
2021/12/09 07:54:05;;;;;;;19.90;11.13;;;3.80;99.90;;;;;;4954951;29;20496;-73
2021/12/09 07:56:32;;;;;;;20.50;11.40;;;3.80;99.90;;;;;;4954916;29;20524;-74
2021/12/09 07:58:59;;;;;;;27.73;11.00;;;3.90;99.90;;;;;;4955044;28;20457;-74
2021/12/09 08:01:26;;;;;;;27.67;13.23;;;3.80;99.90;;;;;;4954767;28;20576;-73
2021/12/09 08:03:53;;;;;;;16.53;10.87;;;3.80;99.90;;;;;;4955171;29;20499;-73
2021/12/09 08:06:20;;;;;;;21.93;11.00;;;3.80;99.90;;;;;;4954820;29;21008;-73
2021/12/09 08:08:48;;;;;;;15.53;10.23;;;3.80;99.90;;;;;;4954725;28;20458;-73
2021/12/09 08:11:15;;;;;;;17.80;9.97;;;3.80;99.90;;;;;;4954916;28;20563;-73
2021/12/09 08:13:42;;;;;;;33.43;12.57;;;3.80;99.90;;;;;;4954834;28;21044;-73
2021/12/09 08:16:09;;;;;;;29.13;12.80;;;3.80;99.90;;;;;;4954688;29;20934;-73
2021/12/09 08:18:53;;;;;;;26.13;12.90;;;3.70;99.90;;;;;;4954699;29;20488;-74
2021/12/09 08:21:20;;;;;;;18.97;12.33;;;3.70;99.90;;;;;;4954490;28;20476;-74
2021/12/09 08:23:49;;;;;;;19.90;12.37;;;3.70;99.90;;;;;;4954709;29;20882;-74
2021/12/09 08:26:16;;;;;;;25.13;13.07;;;3.60;99.90;;;;;;4954691;29;20536;-74
2021/12/09 08:28:43;;;;;;;24.23;12.87;;;3.60;99.90;;;;;;4954363;29;20544;-74
2021/12/09 08:31:10;;;;;;;23.10;12.53;;;3.60;99.90;;;;;;4954310;28;21057;-74
2021/12/09 08:33:37;;;;;;;20.77;12.30;;;3.60;99.90;;;;;;4954676;29;20547;-73
2021/12/09 08:36:04;;;;;;;28.67;14.40;;;3.60;99.90;;;;;;4954147;29;21025;-73
2021/12/09 08:38:31;;;;;;;23.03;13.33;;;3.60;99.90;;;;;;4954099;29;20496;-74
2021/12/09 08:41:01;;;;;;;29.13;13.20;;;3.60;99.90;;;;;;4954137;28;20500;-73
2021/12/09 08:43:29;;;;;;;24.67;14.10;;;3.70;99.90;;;;;;4954305;29;20512;-74
2021/12/09 08:45:58;;;;;;;17.67;13.40;;;3.70;99.90;;;;;;4954217;29;20545;-74
2021/12/09 08:48:26;;;;;;;33.13;14.80;;;3.80;99.90;;;;;;4954292;29;20459;-73
2021/12/09 08:50:53;;;;;;;30.87;13.57;;;3.80;99.90;;;;;;4954208;28;20511;-73
2021/12/09 08:53:22;;;;;;;28.33;13.80;;;3.90;99.90;;;;;;4953938;28;20536;-74
2021/12/09 08:55:50;;;;;;;30.83;13.37;;;3.90;99.90;;;;;;4954173;29;20528;-74
2021/12/09 08:58:19;;;;;;;25.60;13.60;;;3.90;99.90;;;;;;4954159;29;20583;-74
2021/12/09 09:00:47;;;;;;;27.57;14.47;;;4.00;99.90;;;;;;4953712;28;21000;-73
2021/12/09 09:03:15;;;;;;;24.20;13.43;;;4.00;99.90;;;;;;4954028;29;20448;-74
2021/12/09 09:05:43;;;;;;;25.20;13.47;;;3.90;99.90;;;;;;4948362;28;20892;-74
2021/12/09 09:08:10;;;;;;;18.83;12.13;;;3.90;99.90;;;;;;4943629;29;20528;-74
2021/12/09 09:10:40;;;;;;;24.10;13.90;;;3.90;99.90;;;;;;4944498;29;20534;-73
2021/12/09 09:13:07;;;;;;;28.07;14.60;;;3.90;99.90;;;;;;4944159;29;20885;-73
2021/12/09 09:15:36;;;;;;;22.63;13.10;;;4.00;99.90;;;;;;4942758;28;20503;-73
2021/12/09 09:18:04;;;;;;;28.80;16.87;;;4.00;99.90;;;;;;4934959;29;20503;-74
2021/12/09 09:20:32;;;;;;;28.30;14.17;;;4.00;99.90;;;;;;4934605;29;20461;-74
2021/12/09 09:22:59;;;;;;;23.60;15.23;;;4.00;99.90;;;;;;4946264;29;20484;-74
2021/12/09 09:25:29;;;;;;;26.57;14.70;;;3.90;99.90;;;;;;4949462;29;20453;-73
2021/12/09 09:27:57;;;;;;;24.10;15.53;;;3.90;99.90;;;;;;4953432;29;20495;-74
2021/12/09 09:30:27;;;;;;;25.33;15.73;;;3.90;99.90;;;;;;4950624;29;20561;-73
2021/12/09 09:32:55;;;;;;;29.87;17.10;;;4.00;99.90;;;;;;4938283;29;20458;-73
2021/12/09 09:35:22;;;;;;;21.83;14.90;;;3.90;99.90;;;;;;4934551;29;21013;-73
2021/12/09 09:37:49;;;;;;;26.10;15.27;;;3.90;99.90;;;;;;4934542;29;20580;-74
2021/12/09 09:40:27;;;;;;;30.27;17.67;;;3.90;99.90;;;;;;4934295;29;20472;-74
2021/12/09 09:42:59;;;;;;;25.40;16.43;;;4.00;99.90;;;;;;4934532;29;20529;-73
2021/12/09 09:45:27;;;;;;;46.70;16.90;;;3.90;99.90;;;;;;4934687;29;20468;-74
2021/12/09 09:47:55;;;;;;;27.03;15.47;;;4.00;99.90;;;;;;4934647;29;20537;-74
2021/12/09 09:50:23;;;;;;;29.03;17.27;;;4.00;99.90;;;;;;4934259;29;20884;-74
2021/12/09 09:52:50;;;;;;;35.63;17.77;;;4.00;99.90;;;;;;4934416;29;20493;-75
2021/12/09 09:55:21;;;;;;;29.60;17.53;;;4.10;99.90;;;;;;4934329;29;20461;-74
2021/12/09 09:57:52;;;;;;;28.20;16.07;;;4.00;99.90;;;;;;4934512;29;21025;-74
2021/12/09 10:00:22;;;;;;;36.30;17.60;;;4.00;99.90;;;;;;4933939;29;21025;-74
2021/12/09 10:02:55;;;;;;;30.30;16.33;;;4.00;99.90;;;;;;4934404;29;20549;-74
2021/12/09 10:05:32;;;;;;;36.13;18.30;;;4.00;99.90;;;;;;4936895;29;21001;-74
2021/12/09 10:08:00;;;;;;;25.60;16.07;;;4.00;99.90;;;;;;4938106;29;20874;-74
2021/12/09 10:10:27;;;;;;;37.10;16.87;;;4.00;99.90;;;;;;4937748;29;20836;-74
2021/12/09 10:12:59;;;;;;;29.50;17.33;;;4.00;99.90;;;;;;4937717;29;20538;-74
2021/12/09 10:15:53;;;;;;;29.00;16.80;;;4.10;99.90;;;;;;4938085;29;20441;-74
2021/12/09 10:18:36;;;;;;;39.23;18.47;;;4.10;99.90;;;;;;4903693;29;20911;-74
2021/12/09 10:21:04;;;;;;;40.67;18.13;;;4.10;99.90;;;;;;4937492;29;21002;-74
2021/12/09 10:23:37;;;;;;;33.40;17.97;;;4.10;99.90;;;;;;4937702;29;20464;-74
2021/12/09 10:26:22;;;;;;;33.50;17.53;;;4.10;99.90;;;;;;4937695;29;20549;-74
2021/12/09 10:29:05;;;;;;;40.73;18.73;;;4.20;99.90;;;;;;4937703;29;20888;-75
2021/12/09 10:31:35;;;;;;;33.67;18.70;;;4.20;99.90;;;;;;4937709;29;20481;-74
2021/12/09 10:34:14;;;;;;;34.30;18.20;;;4.10;99.90;;;;;;4937752;29;20492;-74
2021/12/09 10:36:44;;;;;;;32.87;18.10;;;4.20;99.90;;;;;;4937249;29;20457;-74
2021/12/09 10:39:17;;;;;;;31.20;17.40;;;4.20;99.90;;;;;;4937256;29;20540;-74
2021/12/09 10:41:44;;;;;;;35.70;18.17;;;4.20;99.90;;;;;;4937544;29;20476;-74
2021/12/09 10:44:13;;;;;;;27.03;16.80;;;4.20;99.90;;;;;;4937511;29;20449;-74
2021/12/09 10:46:51;;;;;;;31.13;17.30;;;4.20;99.90;;;;;;4937313;29;20455;-74
2021/12/09 10:49:20;;;;;;;24.13;16.40;;;4.20;99.90;;;;;;4936879;29;20468;-72
2021/12/09 10:51:57;;;;;;;32.30;18.10;;;4.20;99.90;;;;;;4937301;29;20481;-72
2021/12/09 10:54:32;;;;;;;33.03;17.97;;;4.20;99.90;;;;;;4937296;29;20457;-74
2021/12/09 10:57:25;;;;;;;32.27;15.10;;;4.20;99.90;;;;;;4937211;29;20460;-73
2021/12/09 10:59:52;;;;;;;26.13;14.50;;;4.20;99.90;;;;;;4936849;29;20477;-73
2021/12/09 11:02:22;;;;;;;22.30;14.27;;;4.20;99.90;;;;;;4937297;29;20517;-73
2021/12/09 11:05:08;;;;;;;33.97;16.30;;;4.20;99.90;;;;;;4936949;29;20536;-73
2021/12/09 11:07:35;;;;;;;30.20;16.20;;;4.20;99.90;;;;;;4936969;29;20550;-73
2021/12/09 11:10:22;;;;;;;30.43;15.33;;;4.20;99.90;;;;;;4936660;29;20489;-73
2021/12/09 11:12:51;;;;;;;30.10;15.40;;;4.30;99.90;;;;;;4936996;29;20540;-73
2021/12/09 11:15:20;;;;;;;22.73;14.00;;;4.30;99.90;;;;;;4974431;23;20590;-76
2021/12/09 11:17:50;;;;;;;24.13;14.07;;;4.30;99.90;;;;;;4975235;28;20491;-75
2021/12/09 11:20:46;;;;;;;27.97;15.90;;;4.30;99.90;;;;;;4974817;28;20830;-76
2021/12/09 11:23:33;;;;;;;28.67;15.30;;;4.30;99.90;;;;;;4976681;28;20534;-76
2021/12/09 11:26:47;;;;;;;29.80;15.63;;;4.30;99.90;;;;;;4961714;28;20555;-76
2021/12/09 11:29:17;;;;;;;29.53;15.67;;;4.40;99.90;;;;;;4955827;28;20456;-76
2021/12/09 11:31:55;;;;;;;27.53;15.67;;;4.40;99.90;;;;;;4955763;29;20457;-76
2021/12/09 11:34:27;;;;;;;30.83;17.30;;;4.40;99.90;;;;;;4955695;28;20527;-76
2021/12/09 11:37:01;;;;;;;32.57;17.33;;;4.40;99.90;;;;;;4955504;29;20457;-76
2021/12/09 11:39:35;;;;;;;31.17;17.67;;;4.40;99.90;;;;;;4955228;29;20492;-76
2021/12/09 11:42:15;;;;;;;29.00;16.00;;;4.40;99.90;;;;;;4956015;28;20481;-76
2021/12/09 11:44:44;;;;;;;36.17;15.97;;;4.40;99.90;;;;;;4957055;28;20483;-76
2021/12/09 11:47:12;;;;;;;26.97;16.03;;;4.40;99.90;;;;;;4956802;29;20457;-76
2021/12/09 11:49:39;;;;;;;29.27;16.07;;;4.50;99.90;;;;;;4956351;29;20543;-76
2021/12/09 11:52:08;;;;;;;22.83;14.40;;;4.40;99.90;;;;;;4955297;28;20915;-75
2021/12/09 11:54:34;;;;;;;28.47;14.07;;;4.50;99.90;;;;;;4955400;28;20544;-76
2021/12/09 11:57:15;;;;;;;23.77;13.43;;;4.50;99.90;;;;;;4955028;29;20512;-76
2021/12/09 12:11:36;;;;;;;27.90;12.90;;;4.50;99.90;;;;;;4954770;29;20452;-75
2021/12/09 12:14:09;;;;;;;18.07;11.83;;;4.40;99.90;;;;;;4954949;28;20457;-75
2021/12/09 12:16:53;;;;;;;25.73;13.57;;;4.40;99.90;;;;;;4954875;28;20499;-78
2021/12/09 12:20:27;;;;;;;19.97;12.97;;;4.40;99.90;;;;;;4954622;28;20493;-76
2021/12/09 12:31:59;;;;;;;22.30;10.90;;;4.50;99.90;;;;;;4951814;28;20445;-72
2021/12/09 12:35:11;;;;;;;18.00;10.23;;;4.50;99.90;;;;;;4953684;28;20467;-72
2021/12/09 12:37:51;;;;;;;13.90;8.50;;;4.40;99.90;;;;;;4953559;28;20576;-76
2021/12/09 12:40:20;;;;;;;17.57;8.77;;;4.30;99.90;;;;;;4953454;29;20464;-76
2021/12/09 12:42:55;;;;;;;16.00;8.93;;;4.30;99.90;;;;;;4953693;29;20461;-75
2021/12/09 12:45:54;;;;;;;14.70;8.40;;;4.30;99.90;;;;;;4953458;28;20475;-76
2021/12/09 12:48:57;;;;;;;17.80;7.60;;;4.30;99.90;;;;;;4953406;28;20877;-76
2021/12/09 12:51:29;;;;;;;16.63;8.43;;;4.20;99.90;;;;;;4943712;28;20464;-76
2021/12/09 12:54:04;;;;;;;16.70;7.37;;;4.30;99.90;;;;;;4953149;29;20457;-76
2021/12/09 12:56:40;;;;;;;15.80;7.00;;;4.30;99.90;;;;;;4952984;28;20486;-76
2021/12/09 12:59:20;;;;;;;21.03;7.67;;;4.30;99.90;;;;;;4952871;29;20524;-76
2021/12/09 13:02:15;;;;;;;10.83;7.10;;;4.30;99.90;;;;;;4953208;28;20464;-75
2021/12/09 13:04:54;;;;;;;15.50;7.40;;;4.40;99.90;;;;;;4953026;28;20844;-75
2021/12/09 13:07:32;;;;;;;11.07;6.93;;;4.40;99.90;;;;;;4953362;29;20459;-75
2021/12/09 13:10:26;;;;;;;14.20;7.27;;;4.50;99.90;;;;;;4953188;29;20457;-76
2021/12/09 13:13:04;;;;;;;14.20;6.70;;;4.40;99.90;;;;;;4953881;28;20448;-75
2021/12/09 13:15:43;;;;;;;17.20;7.47;;;4.40;99.90;;;;;;4954029;28;20495;-75
2021/12/09 13:18:48;;;;;;;9.70;5.40;;;4.50;99.90;;;;;;4953971;29;20538;-76
2021/12/09 13:21:39;;;;;;;17.73;5.80;;;4.40;99.90;;;;;;4953707;28;20511;-75
2021/12/09 13:24:31;;;;;;;15.93;6.60;;;4.30;99.90;;;;;;4953973;29;20540;-75
2021/12/09 13:36:21;;;;;;;13.20;6.87;;;4.10;99.90;;;;;;4953678;28;20555;-76
2021/12/09 13:47:17;;;;;;;19.10;7.33;;;4.00;99.90;;;;;;4957557;29;20440;-75
2021/12/09 13:49:54;;;;;;;12.57;6.13;;;4.00;99.90;;;;;;4957512;29;20547;-78
2021/12/09 13:55:11;;;;;;;11.27;6.60;;;4.00;99.90;;;;;;4957794;28;20455;-76
2021/12/09 13:57:41;;;;;;;9.60;6.27;;;4.00;99.90;;;;;;4957624;29;20560;-75
2021/12/09 14:00:13;;;;;;;14.80;7.20;;;4.10;99.90;;;;;;4957530;29;20495;-76
2021/12/09 14:02:41;;;;;;;13.03;6.50;;;4.10;99.90;;;;;;4957406;29;20484;-75
2021/12/09 14:05:14;;;;;;;16.00;6.00;;;4.20;99.90;;;;;;4956120;28;20561;-76
2021/12/09 14:07:49;;;;;;;11.10;6.30;;;4.20;99.90;;;;;;4957184;29;20464;-76
2021/12/09 14:10:24;;;;;;;16.83;5.27;;;4.30;99.90;;;;;;4956987;28;20551;-76
2021/12/09 14:12:57;;;;;;;8.73;5.00;;;4.30;99.90;;;;;;4957221;29;20464;-75
2021/12/09 14:15:35;;;;;;;7.73;5.03;;;4.30;99.90;;;;;;4956724;28;20527;-76
2021/12/09 14:18:09;;;;;;;14.70;5.80;;;4.30;99.90;;;;;;4956976;29;21011;-76
2021/12/09 14:20:37;;;;;;;12.87;5.97;;;4.40;99.90;;;;;;4956721;29;20460;-76
2021/12/09 14:23:05;;;;;;;9.83;5.13;;;4.30;99.90;;;;;;4956837;29;20460;-76
2021/12/09 14:25:35;;;;;;;12.03;6.80;;;4.30;99.90;;;;;;4956827;28;20566;-76
2021/12/09 14:28:05;;;;;;;14.67;6.73;;;4.30;99.90;;;;;;4956580;29;20480;-76
2021/12/09 14:30:35;;;;;;;16.67;5.60;;;4.30;99.90;;;;;;4956809;29;20441;-77
2021/12/09 14:33:02;;;;;;;10.47;4.73;;;4.30;99.90;;;;;;4956825;29;20456;-76
2021/12/09 14:35:33;;;;;;;13.00;5.37;;;4.40;99.90;;;;;;4956585;28;20500;-76
2021/12/09 14:38:02;;;;;;;11.17;4.97;;;4.40;99.90;;;;;;4956825;29;20507;-78
2021/12/09 14:40:38;;;;;;;9.43;5.20;;;4.50;99.90;;;;;;4956234;28;20456;-76
2021/12/09 14:43:09;;;;;;;17.23;5.17;;;4.50;99.90;;;;;;4956777;29;20486;-76
2021/12/09 14:45:38;;;;;;;14.90;5.53;;;4.60;99.90;;;;;;4956220;28;20480;-76
2021/12/09 14:48:08;;;;;;;6.33;4.87;;;4.60;99.90;;;;;;4956415;29;20871;-76
2021/12/09 14:50:39;;;;;;;12.33;5.27;;;4.60;99.90;;;;;;4955581;28;20874;-76
2021/12/09 14:53:07;;;;;;;11.83;5.00;;;4.70;99.90;;;;;;4956036;29;20459;-76
2021/12/09 14:55:40;;;;;;;13.50;5.10;;;4.70;99.90;;;;;;4955920;28;20555;-77
2021/12/09 14:58:10;;;;;;;15.37;4.67;;;4.60;99.90;;;;;;4956117;29;21031;-76
2021/12/09 15:00:43;;;;;;;13.97;4.57;;;4.60;99.90;;;;;;4956241;29;20519;-76
2021/12/09 15:03:13;;;;;;;11.90;5.80;;;4.60;99.90;;;;;;4956425;28;21184;-76
2021/12/09 15:05:59;;;;;;;13.30;4.90;;;4.50;99.90;;;;;;4955994;28;20528;-76
2021/12/09 15:08:31;;;;;;;14.27;5.33;;;4.50;99.90;;;;;;4955967;29;21109;-76
2021/12/09 15:11:00;;;;;;;8.80;4.30;;;4.50;99.90;;;;;;4955543;29;20460;-77
2021/12/09 15:13:41;;;;;;;12.97;5.20;;;4.60;99.90;;;;;;4954839;29;20489;-76
2021/12/09 15:16:09;;;;;;;8.67;4.60;;;4.60;99.90;;;;;;4955685;28;20484;-76
2021/12/09 15:18:39;;;;;;;12.53;5.40;;;4.70;99.90;;;;;;4955776;29;20528;-76
2021/12/09 15:21:18;;;;;;;7.97;4.40;;;4.70;99.90;;;;;;4956267;28;20453;-76
2021/12/09 15:23:52;;;;;;;25.30;6.00;;;4.70;99.90;;;;;;4955932;28;20456;-76
2021/12/09 15:26:23;;;;;;;13.40;5.03;;;4.70;99.90;;;;;;4955817;28;20511;-76
2021/12/09 15:29:05;;;;;;;10.30;4.40;;;4.80;99.90;;;;;;4955724;29;20460;-75
2021/12/09 15:31:33;;;;;;;12.30;4.33;;;4.80;99.90;;;;;;4955775;29;21028;-76
2021/12/09 15:34:07;;;;;;;9.00;4.60;;;4.80;99.90;;;;;;4955768;29;20467;-76
2021/12/09 15:36:37;;;;;;;10.63;4.77;;;4.80;99.90;;;;;;4955594;28;20484;-77
2021/12/09 15:39:10;;;;;;;13.43;5.30;;;4.80;99.90;;;;;;4955149;28;20497;-76
2021/12/09 15:41:42;;;;;;;9.73;5.07;;;4.80;99.90;;;;;;4955509;29;20441;-77
2021/12/09 15:44:14;;;;;;;10.20;4.80;;;4.80;99.90;;;;;;4955426;29;20945;-76
2021/12/09 15:46:52;;;;;;;9.23;5.90;;;4.80;99.90;;;;;;4955496;28;20909;-76
2021/12/09 15:49:21;;;;;;;17.63;7.53;;;4.70;99.90;;;;;;4954976;29;20546;-76
2021/12/09 15:51:49;;;;;;;26.77;10.47;;;4.70;99.90;;;;;;4955569;29;20472;-76
2021/12/09 15:54:20;;;;;;;20.63;9.83;;;4.70;99.90;;;;;;4955372;29;20541;-76
2021/12/09 15:56:52;;;;;;;19.33;8.97;;;4.70;99.90;;;;;;4955399;29;20457;-76
2021/12/09 15:59:25;;;;;;;20.00;8.70;;;4.70;99.90;;;;;;4954989;29;20503;-76
2021/12/09 16:01:54;;;;;;;14.70;7.80;;;4.60;99.90;;;;;;4954529;28;21032;-79
2021/12/09 16:04:26;;;;;;;15.83;7.43;;;4.60;99.90;;;;;;4956196;28;20480;-79
2021/12/09 16:06:53;;;;;;;20.53;6.40;;;4.60;99.90;;;;;;4956552;28;20461;-79
2021/12/09 16:09:21;;;;;;;15.37;6.90;;;4.60;99.90;;;;;;4955692;28;20495;-79
2021/12/09 16:11:57;;;;;;;15.40;8.40;;;4.60;99.90;;;;;;4958887;29;20492;-79
2021/12/09 16:14:25;;;;;;;18.03;8.83;;;4.60;99.90;;;;;;4958521;28;20511;-79
2021/12/09 16:16:55;;;;;;;12.17;6.70;;;4.70;99.90;;;;;;4956567;29;20926;-79
2021/12/09 16:19:32;;;;;;;13.53;7.37;;;4.60;99.90;;;;;;4957600;29;20532;-79
2021/12/09 16:22:18;;;;;;;14.23;8.13;;;4.50;99.90;;;;;;4956568;29;20492;-78
2021/12/09 16:24:49;;;;;;;14.73;8.73;;;4.60;99.90;;;;;;4956288;28;20524;-77
2021/12/09 16:27:17;;;;;;;16.23;9.30;;;4.50;99.90;;;;;;4956303;28;20480;-76
2021/12/09 16:29:45;;;;;;;19.30;8.60;;;4.50;99.90;;;;;;4955386;29;20488;-76
2021/12/09 16:32:13;;;;;;;18.77;8.40;;;4.50;99.90;;;;;;4956472;29;20453;-77
2021/12/09 16:34:41;;;;;;;18.23;8.60;;;4.50;99.90;;;;;;4955385;28;20492;-76
2021/12/09 16:37:09;;;;;;;12.77;8.30;;;4.40;99.90;;;;;;4955211;29;20485;-76
2021/12/09 16:39:36;;;;;;;17.13;8.07;;;4.50;99.90;;;;;;4954921;28;20579;-76
2021/12/09 16:42:05;;;;;;;16.40;9.43;;;4.40;99.90;;;;;;4955330;28;20460;-76
2021/12/09 16:44:32;;;;;;;28.50;18.40;;;4.40;99.90;;;;;;4955719;28;20492;-78
2021/12/09 16:46:59;;;;;;;21.33;12.00;;;4.40;99.90;;;;;;4956179;29;20495;-78
2021/12/09 16:49:26;;;;;;;21.33;10.10;;;4.40;99.90;;;;;;4954886;29;20969;-76
2021/12/09 16:51:54;;;;;;;28.40;14.07;;;4.40;99.90;;;;;;4955692;29;20469;-77
2021/12/09 16:54:28;;;;;;;31.43;16.57;;;4.40;99.90;;;;;;4954489;28;20485;-77
2021/12/09 16:56:58;;;;;;;22.73;13.93;;;4.40;99.90;;;;;;4954252;28;20460;-77
2021/12/09 16:59:30;;;;;;;24.03;14.20;;;4.40;99.90;;;;;;4953918;28;20496;-77
2021/12/09 17:02:00;;;;;;;19.80;11.60;;;4.40;99.90;;;;;;4954185;29;20461;-77
2021/12/09 17:04:29;;;;;;;21.70;11.93;;;4.40;99.90;;;;;;4954086;28;20484;-76
2021/12/09 17:06:57;;;;;;;23.73;12.77;;;4.40;99.90;;;;;;4954502;29;20477;-77
2021/12/09 17:09:25;;;;;;;23.50;10.93;;;4.40;99.90;;;;;;4954266;29;20481;-77
2021/12/09 17:11:53;;;;;;;24.30;11.50;;;4.40;99.90;;;;;;4945629;29;20448;-77
2021/12/09 17:14:22;;;;;;;26.57;13.10;;;4.40;99.90;;;;;;4934647;29;20546;-77
2021/12/09 17:16:52;;;;;;;24.33;12.80;;;4.40;99.90;;;;;;4974094;23;20591;-76
2021/12/09 17:19:20;;;;;;;21.37;11.77;;;4.40;99.90;;;;;;4953800;29;20579;-74
2021/12/09 17:21:48;;;;;;;18.67;10.80;;;4.40;99.90;;;;;;4953847;29;20548;-75
2021/12/09 17:24:15;;;;;;;18.87;11.07;;;4.40;99.90;;;;;;4953881;29;20481;-75
2021/12/09 17:26:45;;;;;;;23.37;10.57;;;4.40;99.90;;;;;;4953890;28;20548;-74
2021/12/09 17:29:13;;;;;;;27.70;13.73;;;4.40;99.90;;;;;;4953558;29;20532;-75
2021/12/09 17:31:43;;;;;;;23.20;12.00;;;4.40;99.90;;;;;;4954161;29;20484;-75
2021/12/09 17:34:12;;;;;;;21.03;11.40;;;4.30;99.90;;;;;;4954172;29;20452;-73
2021/12/09 17:36:41;;;;;;;21.40;11.53;;;4.30;99.90;;;;;;4953736;28;20563;-75
2021/12/09 17:39:13;;;;;;;27.83;13.40;;;4.30;99.90;;;;;;4937179;29;20576;-75
2021/12/09 17:41:43;;;;;;;21.83;12.90;;;4.40;99.90;;;;;;4934407;29;21041;-74
2021/12/09 17:44:10;;;;;;;21.17;11.60;;;4.40;99.90;;;;;;4934727;29;20549;-75
2021/12/09 17:46:39;;;;;;;33.73;13.30;;;4.40;99.90;;;;;;4934480;29;20514;-74
2021/12/09 17:49:07;;;;;;;23.90;10.93;;;4.40;99.90;;;;;;4934358;29;20457;-75
2021/12/09 17:51:43;;;;;;;18.73;11.20;;;4.40;99.90;;;;;;4934692;29;20456;-74
2021/12/09 17:54:10;;;;;;;19.30;11.60;;;4.40;99.90;;;;;;4947498;29;20452;-74
2021/12/09 17:56:38;;;;;;;20.00;12.33;;;4.40;99.90;;;;;;4952917;29;20548;-74
2021/12/09 17:59:05;;;;;;;26.80;13.30;;;4.40;99.90;;;;;;4953464;29;20583;-74
2021/12/09 18:01:32;;;;;;;30.27;14.10;;;4.50;99.90;;;;;;4953368;29;20892;-74
2021/12/09 18:03:59;;;;;;;42.70;22.30;;;4.40;99.90;;;;;;4953322;29;20512;-74
2021/12/09 18:06:26;;;;;;;24.90;14.30;;;4.50;99.90;;;;;;4953299;29;20507;-74
2021/12/09 18:08:55;;;;;;;29.30;14.50;;;4.50;99.90;;;;;;4953323;29;20496;-74
2021/12/09 18:11:24;;;;;;;22.60;14.60;;;4.50;99.90;;;;;;4953482;28;20463;-74
2021/12/09 18:13:53;;;;;;;17.43;11.23;;;4.50;99.90;;;;;;4953504;29;20508;-74
2021/12/09 18:16:20;;;;;;;18.67;10.70;;;4.50;99.90;;;;;;4953189;29;20484;-75
2021/12/09 18:18:47;;;;;;;18.40;11.13;;;4.50;99.90;;;;;;4953215;29;20484;-74
2021/12/09 18:21:14;;;;;;;19.87;9.93;;;4.40;99.90;;;;;;4952992;29;20497;-74
2021/12/09 18:23:41;;;;;;;17.57;10.00;;;4.50;99.90;;;;;;4953161;29;20489;-74
2021/12/09 18:26:09;;;;;;;21.43;9.47;;;4.40;99.90;;;;;;4955463;28;20564;-74
2021/12/09 18:28:36;;;;;;;13.67;7.53;;;4.40;99.90;;;;;;4957059;29;20543;-74
2021/12/09 18:31:03;;;;;;;17.23;8.70;;;4.30;99.90;;;;;;4956429;29;20480;-74
2021/12/09 18:33:30;;;;;;;13.03;8.30;;;4.30;99.90;;;;;;4955797;28;20535;-74
2021/12/09 18:35:57;;;;;;;19.93;9.33;;;4.30;99.90;;;;;;4955707;29;20984;-74
2021/12/09 18:38:25;;;;;;;13.37;6.07;;;4.30;99.90;;;;;;4955817;28;20459;-75
2021/12/09 18:40:54;;;;;;;11.67;5.10;;;4.20;99.90;;;;;;4955368;29;20580;-74
2021/12/09 18:43:24;;;;;;;13.77;4.53;;;4.20;99.90;;;;;;4955858;29;20445;-74
2021/12/09 18:45:53;;;;;;;7.30;4.53;;;4.10;99.90;;;;;;4956538;28;20543;-74